Terminal Aerodrome Forecast
Issued by NWS

Current Version | Previous Version | Text Only | Print | Product List | Glossary On
Versions: 1 2 3 4 5 6 7 8 9 10 11 12 13 14
000
FTUS41 KCLE 271929 AAA
TAFFDY
TAF AMD
KFDY 271929Z 2719/2818 27005KT P6SM SCT030 OVC045
      TEMPO 2720/2724 BKN030
     FM280000 10006KT P6SM SCT025 BKN045
     FM280400 04006KT P6SM BKN110
      TEMPO 2809/2813 5SM BR
     FM281300 02009KT P6SM BKN015
     FM281500 01010KT P6SM BKN025=

USA.gov is the U.S. government's official web portal to all federal, state and local government web resources and services.